sensor_id;sensor_type;location;lat;lon;timestamp;temperature;humidity
50570;DHT22;36525;49.398;7.614;2023-04-06T00:01:19;1.10;99.90
50570;DHT22;36525;49.398;7.614;2023-04-06T00:03:46;0.90;99.90
50570;DHT22;36525;49.398;7.614;2023-04-06T00:06:13;0.90;99.90
50570;DHT22;36525;49.398;7.614;2023-04-06T00:08:42;0.90;99.90
50570;DHT22;36525;49.398;7.614;2023-04-06T00:11:11;0.80;99.90
50570;DHT22;36525;49.398;7.614;2023-04-06T00:13:38;0.80;99.90
50570;DHT22;36525;49.398;7.614;2023-04-06T00:16:05;0.70;99.90
50570;DHT22;36525;49.398;7.614;2023-04-06T00:18:33;0.70;99.90
50570;DHT22;36525;49.398;7.614;2023-04-06T00:21:00;0.70;99.90
50570;DHT22;36525;49.398;7.614;2023-04-06T00:23:27;0.70;99.90
50570;DHT22;36525;49.398;7.614;2023-04-06T00:25:54;0.70;99.90
50570;DHT22;36525;49.398;7.614;2023-04-06T00:28:22;0.60;99.90
50570;DHT22;36525;49.398;7.614;2023-04-06T00:30:53;0.60;99.90
50570;DHT22;36525;49.398;7.614;2023-04-06T00:33:22;0.40;99.90
50570;DHT22;36525;49.398;7.614;2023-04-06T00:35:49;0.30;99.90
50570;DHT22;36525;49.398;7.614;2023-04-06T00:38:17;0.30;99.90
50570;DHT22;36525;49.398;7.614;2023-04-06T00:40:44;0.30;99.90
50570;DHT22;36525;49.398;7.614;2023-04-06T00:43:13;0.30;99.90
50570;DHT22;36525;49.398;7.614;2023-04-06T00:45:41;0.20;99.90
50570;DHT22;36525;49.398;7.614;2023-04-06T00:48:09;0.20;99.90
50570;DHT22;36525;49.398;7.614;2023-04-06T00:50:36;0.30;99.90
50570;DHT22;36525;49.398;7.614;2023-04-06T00:53:03;0.20;99.90
50570;DHT22;36525;49.398;7.614;2023-04-06T00:55:31;0.30;99.90
50570;DHT22;36525;49.398;7.614;2023-04-06T00:57:59;0.30;99.90
50570;DHT22;36525;49.398;7.614;2023-04-06T01:00:27;0.30;99.90
50570;DHT22;36525;49.398;7.614;2023-04-06T01:02:55;0.40;99.90
50570;DHT22;36525;49.398;7.614;2023-04-06T01:05:22;0.40;99.90
50570;DHT22;36525;49.398;7.614;2023-04-06T01:07:49;0.30;99.90
50570;DHT22;36525;49.398;7.614;2023-04-06T01:10:24;0.40;99.90
50570;DHT22;36525;49.398;7.614;2023-04-06T01:12:53;0.40;99.90
50570;DHT22;36525;49.398;7.614;2023-04-06T01:15:20;0.40;99.90
50570;DHT22;36525;49.398;7.614;2023-04-06T01:17:51;0.30;99.90
50570;DHT22;36525;49.398;7.614;2023-04-06T01:20:18;0.20;99.90
50570;DHT22;36525;49.398;7.614;2023-04-06T01:22:46;0.20;99.90
50570;DHT22;36525;49.398;7.614;2023-04-06T01:25:14;0.10;99.90
50570;DHT22;36525;49.398;7.614;2023-04-06T01:27:41;0.10;99.90
50570;DHT22;36525;49.398;7.614;2023-04-06T01:30:09;0.10;99.90
50570;DHT22;36525;49.398;7.614;2023-04-06T01:32:36;0.10;99.90
50570;DHT22;36525;49.398;7.614;2023-04-06T01:35:04;0.00;99.90
50570;DHT22;36525;49.398;7.614;2023-04-06T01:37:31;0.00;99.90
50570;DHT22;36525;49.398;7.614;2023-04-06T01:39:59;0.00;99.90
50570;DHT22;36525;49.398;7.614;2023-04-06T01:42:27;0.00;99.90
50570;DHT22;36525;49.398;7.614;2023-04-06T01:44:54;-0.10;99.90
50570;DHT22;36525;49.398;7.614;2023-04-06T01:47:21;-0.10;99.90
50570;DHT22;36525;49.398;7.614;2023-04-06T01:49:48;-0.10;99.90
50570;DHT22;36525;49.398;7.614;2023-04-06T01:52:16;-0.10;99.90
50570;DHT22;36525;49.398;7.614;2023-04-06T01:54:43;-0.10;99.90
50570;DHT22;36525;49.398;7.614;2023-04-06T01:57:13;-0.10;99.90
50570;DHT22;36525;49.398;7.614;2023-04-06T01:59:40;-0.10;99.90
50570;DHT22;36525;49.398;7.614;2023-04-06T02:02:07;-0.10;99.90
50570;DHT22;36525;49.398;7.614;2023-04-06T02:04:35;-0.30;99.90
50570;DHT22;36525;49.398;7.614;2023-04-06T02:07:05;-0.30;99.90
50570;DHT22;36525;49.398;7.614;2023-04-06T02:09:32;-0.30;99.90
50570;DHT22;36525;49.398;7.614;2023-04-06T02:11:59;-0.30;99.90
50570;DHT22;36525;49.398;7.614;2023-04-06T02:14:28;-0.40;99.90
50570;DHT22;36525;49.398;7.614;2023-04-06T02:16:55;-0.50;99.90
50570;DHT22;36525;49.398;7.614;2023-04-06T02:19:22;-0.40;99.90
50570;DHT22;36525;49.398;7.614;2023-04-06T02:21:49;-0.40;99.90
50570;DHT22;36525;49.398;7.614;2023-04-06T02:24:16;-0.40;99.90
50570;DHT22;36525;49.398;7.614;2023-04-06T02:26:43;-0.40;99.90
50570;DHT22;36525;49.398;7.614;2023-04-06T02:29:10;-0.40;99.90
50570;DHT22;36525;49.398;7.614;2023-04-06T02:31:37;-0.50;99.90
50570;DHT22;36525;49.398;7.614;2023-04-06T02:34:05;-0.60;99.90
50570;DHT22;36525;49.398;7.614;2023-04-06T02:36:32;-0.50;99.90
50570;DHT22;36525;49.398;7.614;2023-04-06T02:38:59;-0.40;99.90
50570;DHT22;36525;49.398;7.614;2023-04-06T02:41:26;-0.40;99.90
50570;DHT22;36525;49.398;7.614;2023-04-06T02:43:53;-0.30;99.90
50570;DHT22;36525;49.398;7.614;2023-04-06T02:46:21;-0.30;99.90
50570;DHT22;36525;49.398;7.614;2023-04-06T02:48:48;-0.40;99.90
50570;DHT22;36525;49.398;7.614;2023-04-06T02:51:16;-0.40;99.90
50570;DHT22;36525;49.398;7.614;2023-04-06T02:53:43;-0.50;99.90
50570;DHT22;36525;49.398;7.614;2023-04-06T02:56:10;-0.70;99.90
50570;DHT22;36525;49.398;7.614;2023-04-06T02:58:38;-0.70;99.90
50570;DHT22;36525;49.398;7.614;2023-04-06T03:01:05;-0.70;99.90
50570;DHT22;36525;49.398;7.614;2023-04-06T03:03:32;-0.80;99.90
50570;DHT22;36525;49.398;7.614;2023-04-06T03:05:59;-0.80;99.90
50570;DHT22;36525;49.398;7.614;2023-04-06T03:08:26;-0.90;99.90
50570;DHT22;36525;49.398;7.614;2023-04-06T03:10:53;-0.90;99.90
50570;DHT22;36525;49.398;7.614;2023-04-06T03:13:21;-1.00;99.90
50570;DHT22;36525;49.398;7.614;2023-04-06T03:15:48;-1.10;99.90
50570;DHT22;36525;49.398;7.614;2023-04-06T03:18:15;-1.00;99.90
50570;DHT22;36525;49.398;7.614;2023-04-06T03:20:44;-1.00;99.90
50570;DHT22;36525;49.398;7.614;2023-04-06T03:23:11;-1.00;99.90
50570;DHT22;36525;49.398;7.614;2023-04-06T03:25:38;-1.00;99.90
50570;DHT22;36525;49.398;7.614;2023-04-06T03:28:06;-1.00;99.90
50570;DHT22;36525;49.398;7.614;2023-04-06T03:30:34;-1.00;99.90
50570;DHT22;36525;49.398;7.614;2023-04-06T03:33:01;-1.10;99.90
50570;DHT22;36525;49.398;7.614;2023-04-06T03:35:31;-1.20;99.90
50570;DHT22;36525;49.398;7.614;2023-04-06T03:37:58;-1.20;99.90
50570;DHT22;36525;49.398;7.614;2023-04-06T03:40:25;-1.10;99.90
50570;DHT22;36525;49.398;7.614;2023-04-06T03:42:52;-1.10;99.90
50570;DHT22;36525;49.398;7.614;2023-04-06T03:45:19;-1.10;99.90
50570;DHT22;36525;49.398;7.614;2023-04-06T03:47:46;-1.10;99.90
50570;DHT22;36525;49.398;7.614;2023-04-06T03:50:13;-1.10;99.90
50570;DHT22;36525;49.398;7.614;2023-04-06T03:52:41;-1.20;99.90
50570;DHT22;36525;49.398;7.614;2023-04-06T03:55:08;-1.20;99.90
50570;DHT22;36525;49.398;7.614;2023-04-06T03:57:36;-1.20;99.90
50570;DHT22;36525;49.398;7.614;2023-04-06T04:00:04;-1.20;99.90
50570;DHT22;36525;49.398;7.614;2023-04-06T04:02:32;-1.20;99.90
50570;DHT22;36525;49.398;7.614;2023-04-06T04:04:59;-1.20;99.90
50570;DHT22;36525;49.398;7.614;2023-04-06T04:07:27;-1.20;99.90
50570;DHT22;36525;49.398;7.614;2023-04-06T04:09:54;-1.20;99.90
50570;DHT22;36525;49.398;7.614;2023-04-06T04:12:21;-1.10;99.90
50570;DHT22;36525;49.398;7.614;2023-04-06T04:14:48;-1.10;99.90
50570;DHT22;36525;49.398;7.614;2023-04-06T04:17:16;-1.30;99.90
50570;DHT22;36525;49.398;7.614;2023-04-06T04:19:43;-1.30;99.90
50570;DHT22;36525;49.398;7.614;2023-04-06T04:22:10;-1.30;99.90
50570;DHT22;36525;49.398;7.614;2023-04-06T04:24:37;-1.30;99.90
50570;DHT22;36525;49.398;7.614;2023-04-06T04:27:04;-1.40;99.90
50570;DHT22;36525;49.398;7.614;2023-04-06T04:29:31;-1.40;99.90
50570;DHT22;36525;49.398;7.614;2023-04-06T04:31:59;-1.40;99.90
50570;DHT22;36525;49.398;7.614;2023-04-06T04:34:26;-1.50;99.90
50570;DHT22;36525;49.398;7.614;2023-04-06T04:36:53;-1.40;99.90
50570;DHT22;36525;49.398;7.614;2023-04-06T04:39:20;-1.40;99.90
50570;DHT22;36525;49.398;7.614;2023-04-06T04:41:47;-1.30;99.90
50570;DHT22;36525;49.398;7.614;2023-04-06T04:44:14;-1.30;99.90
50570;DHT22;36525;49.398;7.614;2023-04-06T04:46:41;-1.40;99.90
50570;DHT22;36525;49.398;7.614;2023-04-06T04:49:08;-1.40;99.90
50570;DHT22;36525;49.398;7.614;2023-04-06T04:51:36;-1.40;99.90
50570;DHT22;36525;49.398;7.614;2023-04-06T04:54:03;-1.30;99.90
50570;DHT22;36525;49.398;7.614;2023-04-06T04:56:31;-1.40;99.90
50570;DHT22;36525;49.398;7.614;2023-04-06T04:58:58;-1.40;99.90
50570;DHT22;36525;49.398;7.614;2023-04-06T05:01:27;-1.50;99.90
50570;DHT22;36525;49.398;7.614;2023-04-06T05:03:54;-1.50;99.90
50570;DHT22;36525;49.398;7.614;2023-04-06T05:06:21;-1.40;99.90
50570;DHT22;36525;49.398;7.614;2023-04-06T05:08:48;-1.50;99.90
50570;DHT22;36525;49.398;7.614;2023-04-06T05:11:15;-1.40;99.90
50570;DHT22;36525;49.398;7.614;2023-04-06T05:13:43;-1.40;99.90
50570;DHT22;36525;49.398;7.614;2023-04-06T05:16:10;-1.40;99.90
50570;DHT22;36525;49.398;7.614;2023-04-06T05:18:38;-1.40;99.90
50570;DHT22;36525;49.398;7.614;2023-04-06T05:21:05;-1.30;99.90
50570;DHT22;36525;49.398;7.614;2023-04-06T05:23:32;-1.30;99.90
50570;DHT22;36525;49.398;7.614;2023-04-06T05:25:59;-1.20;99.90
50570;DHT22;36525;49.398;7.614;2023-04-06T05:28:26;-1.30;99.90
50570;DHT22;36525;49.398;7.614;2023-04-06T05:30:53;-1.30;99.90
50570;DHT22;36525;49.398;7.614;2023-04-06T05:33:21;-1.20;99.90
50570;DHT22;36525;49.398;7.614;2023-04-06T05:35:53;-1.20;99.90
50570;DHT22;36525;49.398;7.614;2023-04-06T05:38:20;-1.20;99.90
50570;DHT22;36525;49.398;7.614;2023-04-06T05:40:47;-1.10;99.90
50570;DHT22;36525;49.398;7.614;2023-04-06T05:43:14;-1.10;99.90
50570;DHT22;36525;49.398;7.614;2023-04-06T05:45:44;-1.10;99.90
50570;DHT22;36525;49.398;7.614;2023-04-06T05:48:12;-1.00;99.90
50570;DHT22;36525;49.398;7.614;2023-04-06T05:50:39;-0.90;99.90
50570;DHT22;36525;49.398;7.614;2023-04-06T05:53:06;-0.90;99.90
50570;DHT22;36525;49.398;7.614;2023-04-06T05:55:33;-0.80;99.90
50570;DHT22;36525;49.398;7.614;2023-04-06T05:58:00;-0.70;99.90
50570;DHT22;36525;49.398;7.614;2023-04-06T06:00:27;-0.70;99.90
50570;DHT22;36525;49.398;7.614;2023-04-06T06:02:54;-0.60;99.90
50570;DHT22;36525;49.398;7.614;2023-04-06T06:05:21;-0.60;99.90
50570;DHT22;36525;49.398;7.614;2023-04-06T06:07:49;-0.60;99.90
50570;DHT22;36525;49.398;7.614;2023-04-06T06:10:16;-0.60;99.90
50570;DHT22;36525;49.398;7.614;2023-04-06T06:12:43;-0.50;99.90
50570;DHT22;36525;49.398;7.614;2023-04-06T06:15:10;-0.50;99.90
50570;DHT22;36525;49.398;7.614;2023-04-06T06:17:38;-0.40;99.90
50570;DHT22;36525;49.398;7.614;2023-04-06T06:20:07;-0.40;99.90
50570;DHT22;36525;49.398;7.614;2023-04-06T06:22:34;-0.20;99.90
50570;DHT22;36525;49.398;7.614;2023-04-06T06:25:02;0.00;99.90
50570;DHT22;36525;49.398;7.614;2023-04-06T06:27:30;0.10;99.90
50570;DHT22;36525;49.398;7.614;2023-04-06T06:29:57;0.30;99.90
50570;DHT22;36525;49.398;7.614;2023-04-06T06:32:25;0.50;99.90
50570;DHT22;36525;49.398;7.614;2023-04-06T06:34:53;0.60;99.90
50570;DHT22;36525;49.398;7.614;2023-04-06T06:37:20;0.80;99.90
50570;DHT22;36525;49.398;7.614;2023-04-06T06:39:47;0.90;99.90
50570;DHT22;36525;49.398;7.614;2023-04-06T06:42:14;1.00;99.90
50570;DHT22;36525;49.398;7.614;2023-04-06T06:44:41;1.20;99.90
50570;DHT22;36525;49.398;7.614;2023-04-06T06:47:08;1.40;99.90
50570;DHT22;36525;49.398;7.614;2023-04-06T06:49:36;1.60;99.90
50570;DHT22;36525;49.398;7.614;2023-04-06T06:52:03;1.90;99.90
50570;DHT22;36525;49.398;7.614;2023-04-06T06:54:30;2.30;99.90
50570;DHT22;36525;49.398;7.614;2023-04-06T06:56:57;2.60;99.90
50570;DHT22;36525;49.398;7.614;2023-04-06T06:59:24;2.90;99.90
50570;DHT22;36525;49.398;7.614;2023-04-06T07:01:51;3.20;99.90
50570;DHT22;36525;49.398;7.614;2023-04-06T07:04:18;3.50;99.90
50570;DHT22;36525;49.398;7.614;2023-04-06T07:06:46;3.80;99.90
50570;DHT22;36525;49.398;7.614;2023-04-06T07:09:13;4.10;99.90
50570;DHT22;36525;49.398;7.614;2023-04-06T07:11:40;4.30;99.90
50570;DHT22;36525;49.398;7.614;2023-04-06T07:14:07;4.60;99.90
50570;DHT22;36525;49.398;7.614;2023-04-06T07:16:34;4.80;99.90
50570;DHT22;36525;49.398;7.614;2023-04-06T07:19:02;5.10;99.90
50570;DHT22;36525;49.398;7.614;2023-04-06T07:21:29;5.30;99.90
50570;DHT22;36525;49.398;7.614;2023-04-06T07:23:56;5.40;99.90
50570;DHT22;36525;49.398;7.614;2023-04-06T07:26:24;5.60;99.90
50570;DHT22;36525;49.398;7.614;2023-04-06T07:28:51;5.70;99.90
50570;DHT22;36525;49.398;7.614;2023-04-06T07:31:19;5.90;99.90
50570;DHT22;36525;49.398;7.614;2023-04-06T07:33:47;5.90;99.90
50570;DHT22;36525;49.398;7.614;2023-04-06T07:36:14;6.10;99.90
50570;DHT22;36525;49.398;7.614;2023-04-06T07:38:41;6.20;99.90
50570;DHT22;36525;49.398;7.614;2023-04-06T07:41:08;6.30;99.90
50570;DHT22;36525;49.398;7.614;2023-04-06T07:43:36;6.30;99.90
50570;DHT22;36525;49.398;7.614;2023-04-06T07:46:03;6.40;99.90
50570;DHT22;36525;49.398;7.614;2023-04-06T07:48:30;6.40;99.90
50570;DHT22;36525;49.398;7.614;2023-04-06T07:51:04;6.50;99.90
50570;DHT22;36525;49.398;7.614;2023-04-06T07:53:31;6.60;99.90
50570;DHT22;36525;49.398;7.614;2023-04-06T07:55:59;6.70;99.90
50570;DHT22;36525;49.398;7.614;2023-04-06T07:58:26;6.80;99.90
50570;DHT22;36525;49.398;7.614;2023-04-06T08:00:53;6.90;99.90
50570;DHT22;36525;49.398;7.614;2023-04-06T08:03:22;7.10;99.90
50570;DHT22;36525;49.398;7.614;2023-04-06T08:05:53;7.10;99.90
50570;DHT22;36525;49.398;7.614;2023-04-06T08:08:20;7.20;99.80
50570;DHT22;36525;49.398;7.614;2023-04-06T08:10:48;7.20;99.30
50570;DHT22;36525;49.398;7.614;2023-04-06T08:13:15;7.50;99.70
50570;DHT22;36525;49.398;7.614;2023-04-06T08:15:43;7.90;98.60
50570;DHT22;36525;49.398;7.614;2023-04-06T08:18:10;8.10;98.20
50570;DHT22;36525;49.398;7.614;2023-04-06T08:20:37;8.40;98.50
50570;DHT22;36525;49.398;7.614;2023-04-06T08:23:05;9.00;97.80
50570;DHT22;36525;49.398;7.614;2023-04-06T08:25:36;9.60;96.40
50570;DHT22;36525;49.398;7.614;2023-04-06T08:28:04;10.60;95.60
50570;DHT22;36525;49.398;7.614;2023-04-06T08:30:31;11.00;94.50
50570;DHT22;36525;49.398;7.614;2023-04-06T08:32:58;11.20;94.50
50570;DHT22;36525;49.398;7.614;2023-04-06T08:35:26;11.40;93.20
50570;DHT22;36525;49.398;7.614;2023-04-06T08:37:54;11.60;92.30
50570;DHT22;36525;49.398;7.614;2023-04-06T08:40:21;11.30;92.40
50570;DHT22;36525;49.398;7.614;2023-04-06T08:42:55;11.50;92.70
50570;DHT22;36525;49.398;7.614;2023-04-06T08:45:22;11.30;92.50
50570;DHT22;36525;49.398;7.614;2023-04-06T08:47:51;10.90;92.00
50570;DHT22;36525;49.398;7.614;2023-04-06T08:50:19;10.60;92.20
50570;DHT22;36525;49.398;7.614;2023-04-06T08:52:49;10.70;92.50
50570;DHT22;36525;49.398;7.614;2023-04-06T08:55:16;10.80;92.30
50570;DHT22;36525;49.398;7.614;2023-04-06T08:57:44;10.70;92.20
50570;DHT22;36525;49.398;7.614;2023-04-06T09:00:13;11.30;92.10
50570;DHT22;36525;49.398;7.614;2023-04-06T09:02:43;12.00;92.60
50570;DHT22;36525;49.398;7.614;2023-04-06T09:05:12;12.70;91.30
50570;DHT22;36525;49.398;7.614;2023-04-06T09:07:40;12.70;89.90
50570;DHT22;36525;49.398;7.614;2023-04-06T09:10:07;13.10;91.30
50570;DHT22;36525;49.398;7.614;2023-04-06T09:12:35;13.10;88.50
50570;DHT22;36525;49.398;7.614;2023-04-06T09:15:03;13.40;89.70
50570;DHT22;36525;49.398;7.614;2023-04-06T09:17:32;13.20;88.50
50570;DHT22;36525;49.398;7.614;2023-04-06T09:20:01;13.90;88.60
50570;DHT22;36525;49.398;7.614;2023-04-06T09:22:39;14.20;85.40
50570;DHT22;36525;49.398;7.614;2023-04-06T09:25:09;14.40;87.40
50570;DHT22;36525;49.398;7.614;2023-04-06T09:27:37;14.30;85.50
50570;DHT22;36525;49.398;7.614;2023-04-06T09:30:09;14.10;85.10
50570;DHT22;36525;49.398;7.614;2023-04-06T09:32:59;13.80;84.00
50570;DHT22;36525;49.398;7.614;2023-04-06T09:35:26;14.20;87.60
50570;DHT22;36525;49.398;7.614;2023-04-06T09:37:54;14.90;86.80
50570;DHT22;36525;49.398;7.614;2023-04-06T09:40:22;15.20;83.40
50570;DHT22;36525;49.398;7.614;2023-04-06T09:42:50;14.60;83.10
50570;DHT22;36525;49.398;7.614;2023-04-06T09:45:19;13.40;81.00
50570;DHT22;36525;49.398;7.614;2023-04-06T09:47:50;14.00;82.30
50570;DHT22;36525;49.398;7.614;2023-04-06T09:50:21;14.20;83.90
50570;DHT22;36525;49.398;7.614;2023-04-06T09:52:50;14.80;84.30
50570;DHT22;36525;49.398;7.614;2023-04-06T09:55:31;15.10;82.30
50570;DHT22;36525;49.398;7.614;2023-04-06T09:58:09;14.10;81.00
50570;DHT22;36525;49.398;7.614;2023-04-06T10:00:48;14.40;85.00
50570;DHT22;36525;49.398;7.614;2023-04-06T10:03:32;14.60;83.80
50570;DHT22;36525;49.398;7.614;2023-04-06T10:06:10;13.70;81.50
50570;DHT22;36525;49.398;7.614;2023-04-06T10:08:40;12.90;81.70
50570;DHT22;36525;49.398;7.614;2023-04-06T10:11:09;12.50;83.10
50570;DHT22;36525;49.398;7.614;2023-04-06T10:13:37;12.40;85.20
50570;DHT22;36525;49.398;7.614;2023-04-06T10:16:05;12.30;84.30
50570;DHT22;36525;49.398;7.614;2023-04-06T10:18:33;12.20;84.80
50570;DHT22;36525;49.398;7.614;2023-04-06T10:21:06;12.10;85.60
50570;DHT22;36525;49.398;7.614;2023-04-06T10:23:37;12.00;85.70
50570;DHT22;36525;49.398;7.614;2023-04-06T10:26:12;11.70;84.50
50570;DHT22;36525;49.398;7.614;2023-04-06T10:28:41;11.90;86.40
50570;DHT22;36525;49.398;7.614;2023-04-06T10:31:09;12.00;84.10
50570;DHT22;36525;49.398;7.614;2023-04-06T10:33:37;11.60;84.70
50570;DHT22;36525;49.398;7.614;2023-04-06T10:36:14;11.80;84.80
50570;DHT22;36525;49.398;7.614;2023-04-06T10:38:57;11.90;86.10
50570;DHT22;36525;49.398;7.614;2023-04-06T10:41:40;11.90;84.00
50570;DHT22;36525;49.398;7.614;2023-04-06T10:44:21;11.80;84.80
50570;DHT22;36525;49.398;7.614;2023-04-06T10:46:59;11.60;87.50
50570;DHT22;36525;49.398;7.614;2023-04-06T10:49:29;11.50;84.40
50570;DHT22;36525;49.398;7.614;2023-04-06T10:51:57;11.50;85.60
50570;DHT22;36525;49.398;7.614;2023-04-06T10:54:25;11.60;84.90
50570;DHT22;36525;49.398;7.614;2023-04-06T10:56:53;11.50;85.40
50570;DHT22;36525;49.398;7.614;2023-04-06T10:59:21;11.60;84.20
50570;DHT22;36525;49.398;7.614;2023-04-06T11:01:49;11.40;83.70
50570;DHT22;36525;49.398;7.614;2023-04-06T11:04:20;11.30;84.50
50570;DHT22;36525;49.398;7.614;2023-04-06T11:06:49;11.30;85.10
50570;DHT22;36525;49.398;7.614;2023-04-06T11:09:24;11.40;85.80
50570;DHT22;36525;49.398;7.614;2023-04-06T11:11:55;11.40;85.80
50570;DHT22;36525;49.398;7.614;2023-04-06T11:14:23;11.50;85.90
50570;DHT22;36525;49.398;7.614;2023-04-06T11:16:50;11.60;87.10
50570;DHT22;36525;49.398;7.614;2023-04-06T11:19:18;11.60;86.20
50570;DHT22;36525;49.398;7.614;2023-04-06T11:21:47;11.50;85.70
50570;DHT22;36525;49.398;7.614;2023-04-06T11:24:19;11.60;87.10
50570;DHT22;36525;49.398;7.614;2023-04-06T11:26:52;11.50;86.20
50570;DHT22;36525;49.398;7.614;2023-04-06T11:29:26;11.70;87.50
50570;DHT22;36525;49.398;7.614;2023-04-06T11:32:05;11.90;85.60
50570;DHT22;36525;49.398;7.614;2023-04-06T11:34:35;12.10;89.30
50570;DHT22;36525;49.398;7.614;2023-04-06T11:37:13;12.50;85.50
50570;DHT22;36525;49.398;7.614;2023-04-06T11:39:48;12.40;86.00
50570;DHT22;36525;49.398;7.614;2023-04-06T11:42:27;12.60;86.50
50570;DHT22;36525;49.398;7.614;2023-04-06T11:44:57;12.40;84.70
50570;DHT22;36525;49.398;7.614;2023-04-06T11:47:30;12.40;85.70
50570;DHT22;36525;49.398;7.614;2023-04-06T11:52:36;13.10;86.80
50570;DHT22;36525;49.398;7.614;2023-04-06T11:55:17;13.50;86.50
50570;DHT22;36525;49.398;7.614;2023-04-06T11:57:45;13.00;82.60
50570;DHT22;36525;49.398;7.614;2023-04-06T12:00:12;12.40;81.30
50570;DHT22;36525;49.398;7.614;2023-04-06T12:02:46;12.30;83.30
50570;DHT22;36525;49.398;7.614;2023-04-06T12:05:14;12.40;83.00
50570;DHT22;36525;49.398;7.614;2023-04-06T12:07:41;12.40;84.40
50570;DHT22;36525;49.398;7.614;2023-04-06T12:10:09;12.50;83.70
50570;DHT22;36525;49.398;7.614;2023-04-06T12:12:37;12.50;84.40
50570;DHT22;36525;49.398;7.614;2023-04-06T12:15:05;12.20;83.80
50570;DHT22;36525;49.398;7.614;2023-04-06T12:17:32;12.00;83.60
50570;DHT22;36525;49.398;7.614;2023-04-06T12:20:00;12.00;83.40
50570;DHT22;36525;49.398;7.614;2023-04-06T12:22:43;11.90;83.80
50570;DHT22;36525;49.398;7.614;2023-04-06T12:25:10;11.90;85.50
50570;DHT22;36525;49.398;7.614;2023-04-06T12:27:38;11.80;84.70
50570;DHT22;36525;49.398;7.614;2023-04-06T12:30:06;12.00;86.40
50570;DHT22;36525;49.398;7.614;2023-04-06T12:32:33;12.00;85.40
50570;DHT22;36525;49.398;7.614;2023-04-06T12:35:00;12.10;84.30
50570;DHT22;36525;49.398;7.614;2023-04-06T12:37:27;12.10;84.80
50570;DHT22;36525;49.398;7.614;2023-04-06T12:39:54;12.30;87.50
50570;DHT22;36525;49.398;7.614;2023-04-06T12:42:21;12.50;84.90
50570;DHT22;36525;49.398;7.614;2023-04-06T12:44:49;12.50;84.20
50570;DHT22;36525;49.398;7.614;2023-04-06T12:47:16;12.30;84.40
50570;DHT22;36525;49.398;7.614;2023-04-06T12:49:45;12.20;86.20
50570;DHT22;36525;49.398;7.614;2023-04-06T12:52:12;12.10;84.00
50570;DHT22;36525;49.398;7.614;2023-04-06T12:54:39;12.10;85.80
50570;DHT22;36525;49.398;7.614;2023-04-06T12:57:08;12.00;84.90
50570;DHT22;36525;49.398;7.614;2023-04-06T12:59:35;12.10;86.00
50570;DHT22;36525;49.398;7.614;2023-04-06T13:02:04;12.40;85.00
50570;DHT22;36525;49.398;7.614;2023-04-06T13:04:32;12.50;84.70
50570;DHT22;36525;49.398;7.614;2023-04-06T13:06:59;12.20;85.10
50570;DHT22;36525;49.398;7.614;2023-04-06T13:09:26;12.00;84.90
50570;DHT22;36525;49.398;7.614;2023-04-06T13:11:53;12.00;85.60
50570;DHT22;36525;49.398;7.614;2023-04-06T13:14:21;12.00;86.50
50570;DHT22;36525;49.398;7.614;2023-04-06T13:16:48;11.90;87.40
50570;DHT22;36525;49.398;7.614;2023-04-06T13:19:15;11.90;85.80
50570;DHT22;36525;49.398;7.614;2023-04-06T13:21:43;11.70;86.00
50570;DHT22;36525;49.398;7.614;2023-04-06T13:24:10;11.70;87.60
50570;DHT22;36525;49.398;7.614;2023-04-06T13:26:37;12.00;86.60
50570;DHT22;36525;49.398;7.614;2023-04-06T13:29:04;12.30;87.50
50570;DHT22;36525;49.398;7.614;2023-04-06T13:31:31;12.60;87.60
50570;DHT22;36525;49.398;7.614;2023-04-06T13:33:58;12.10;85.10
50570;DHT22;36525;49.398;7.614;2023-04-06T13:36:26;12.00;86.90
50570;DHT22;36525;49.398;7.614;2023-04-06T13:38:53;12.10;87.10
50570;DHT22;36525;49.398;7.614;2023-04-06T13:41:23;12.30;90.00
50570;DHT22;36525;49.398;7.614;2023-04-06T13:43:52;12.60;87.40
50570;DHT22;36525;49.398;7.614;2023-04-06T13:46:19;12.70;86.90
50570;DHT22;36525;49.398;7.614;2023-04-06T13:48:47;12.70;85.80
50570;DHT22;36525;49.398;7.614;2023-04-06T13:51:14;12.60;87.20
50570;DHT22;36525;49.398;7.614;2023-04-06T13:53:44;12.40;86.10
50570;DHT22;36525;49.398;7.614;2023-04-06T13:56:12;12.10;86.80
50570;DHT22;36525;49.398;7.614;2023-04-06T13:58:39;12.20;89.20
50570;DHT22;36525;49.398;7.614;2023-04-06T14:01:07;12.00;86.50
50570;DHT22;36525;49.398;7.614;2023-04-06T14:03:37;12.20;86.80
50570;DHT22;36525;49.398;7.614;2023-04-06T14:06:11;12.40;87.80
50570;DHT22;36525;49.398;7.614;2023-04-06T14:08:53;12.30;87.50
50570;DHT22;36525;49.398;7.614;2023-04-06T14:11:20;12.40;88.60
50570;DHT22;36525;49.398;7.614;2023-04-06T14:13:47;12.30;88.80
50570;DHT22;36525;49.398;7.614;2023-04-06T14:16:14;12.30;89.10
50570;DHT22;36525;49.398;7.614;2023-04-06T14:18:41;12.20;90.00
50570;DHT22;36525;49.398;7.614;2023-04-06T14:21:09;12.30;90.40
50570;DHT22;36525;49.398;7.614;2023-04-06T14:23:36;12.30;90.70
50570;DHT22;36525;49.398;7.614;2023-04-06T14:26:05;12.30;90.30
50570;DHT22;36525;49.398;7.614;2023-04-06T14:28:33;12.10;90.70
50570;DHT22;36525;49.398;7.614;2023-04-06T14:31:02;12.00;91.20
50570;DHT22;36525;49.398;7.614;2023-04-06T14:33:36;11.80;90.40
50570;DHT22;36525;49.398;7.614;2023-04-06T14:36:03;11.90;91.00
50570;DHT22;36525;49.398;7.614;2023-04-06T14:38:32;11.70;90.70
50570;DHT22;36525;49.398;7.614;2023-04-06T14:40:59;11.20;91.00
50570;DHT22;36525;49.398;7.614;2023-04-06T14:43:27;11.20;92.00
50570;DHT22;36525;49.398;7.614;2023-04-06T14:45:54;11.20;92.30
50570;DHT22;36525;49.398;7.614;2023-04-06T14:48:21;10.90;92.70
50570;DHT22;36525;49.398;7.614;2023-04-06T14:50:52;10.80;93.40
50570;DHT22;36525;49.398;7.614;2023-04-06T14:53:20;10.60;94.00
50570;DHT22;36525;49.398;7.614;2023-04-06T14:55:47;10.60;95.20
50570;DHT22;36525;49.398;7.614;2023-04-06T14:58:22;10.40;95.00
50570;DHT22;36525;49.398;7.614;2023-04-06T15:00:49;10.30;95.10
50570;DHT22;36525;49.398;7.614;2023-04-06T15:03:22;10.30;95.50
50570;DHT22;36525;49.398;7.614;2023-04-06T15:05:52;10.20;95.30
50570;DHT22;36525;49.398;7.614;2023-04-06T15:08:20;10.40;96.10
50570;DHT22;36525;49.398;7.614;2023-04-06T15:10:48;10.50;95.60
50570;DHT22;36525;49.398;7.614;2023-04-06T15:13:17;10.70;95.70
50570;DHT22;36525;49.398;7.614;2023-04-06T15:15:44;10.80;95.40
50570;DHT22;36525;49.398;7.614;2023-04-06T15:18:12;10.70;94.50
50570;DHT22;36525;49.398;7.614;2023-04-06T15:20:39;10.60;94.50
50570;DHT22;36525;49.398;7.614;2023-04-06T15:23:07;10.50;94.90
50570;DHT22;36525;49.398;7.614;2023-04-06T15:25:34;10.30;95.40
50570;DHT22;36525;49.398;7.614;2023-04-06T15:28:01;10.20;95.40
50570;DHT22;36525;49.398;7.614;2023-04-06T15:30:28;10.30;96.00
50570;DHT22;36525;49.398;7.614;2023-04-06T15:32:59;10.20;96.00
50570;DHT22;36525;49.398;7.614;2023-04-06T15:35:27;10.00;96.00
50570;DHT22;36525;49.398;7.614;2023-04-06T15:37:58;10.10;96.90
50570;DHT22;36525;49.398;7.614;2023-04-06T15:40:25;10.10;96.70
50570;DHT22;36525;49.398;7.614;2023-04-06T15:42:53;10.10;97.10
50570;DHT22;36525;49.398;7.614;2023-04-06T15:45:20;9.90;97.60